Williamsburg, Iowa
Current Conditions -  °F | °C
As of 11:52 AM on Saturday 20 Dec 2014 (Local Time) from KCID Reporting Station
Haze Haze  
Wind Chill: 24°   Ceiling: 600
Heat Index: 31°   Visibility: 1.7mi
Dew Point: 30°   Wind: 7mph
Humidity: 96%   Direction: 150°SSE
Pressure: 30.2"   Gusts: NA
Location:  41.66°N, 92.01°W
Report Text: KCID 201752Z 15006KT 1 3/4SM BR BKN006 OVC029 M01/M01 A3020 RMK AO2 SLP235 T10061011 11006 21017 58004 $
Loading
Personal Weather Stations






























Interactive Weather Map New forecast layout! Learn more

10-Day Weather Forecast

Advertisements
Track Severe Weather on mobile